Terminal Aerodrome Forecast
Issued by NWS Melbourne, FL

Home | Current Version | Previous Version | Text Only | Print | Product List | Glossary On
Versions: 1 2 3 4 5 6 7 8 9 10 11 12 13 14 15 16 17 18 19 20 21 22 23 24 25 26 27 28
119
FTUS42 KMLB 190608 RRA
TAFVRB
TAF
KVRB 190608Z 1906/2006 16014G21KT P6SM BKN080 WS015/18035KT
     FM191300 18020G30KT P6SM SCT015 BKN040 OVC060
     FM191900 20025G35KT P6SM VCTS BKN035CB BKN060 OVC150
      TEMPO 1921/1923 2SM +TSRA BKN025CB OVC035
     FM200000 25012G19KT P6SM VCSH BKN025
      TEMPO 2001/2005 3SM SHRA=

USA.gov is the U.S. government's official web portal to all federal, state and local government web resources and services.